Time;durP1;ratioP1;P1;durP2;ratioP2;P2;SDS_P1;SDS_P2;PMS_P1;PMS_P2;Temp;Humidity;BMP_temperature;BMP_pressure;BME280_temperature;BME280_humidity;BME280_pressure;Samples;Min_cycle;Max_cycle;Signal;HPM_P1;HPM_P2
2022/08/12 00:45:13;;;;;;;;;;;;;;;;;;10460359;28;19931;-66
2022/08/12 00:50:18;;;;;;;;;;;;;;;;;;10458743;28;20290;-66
2022/08/12 00:55:20;;;;;;;;;;;;;;;;;;10459575;28;19931;-66
2022/08/12 01:00:22;;;;;;;;;;;;;;;;;;10459799;28;19932;-66
2022/08/12 01:16:06;;;;;;;;;;;;;;;;;;10456196;28;19925;-65
2022/08/12 01:21:08;;;;;;;;;;;;;;;;;;10458378;28;19955;-66
2022/08/12 01:26:10;;;;;;;;;;;;;;;;;;10458117;28;19932;-66
2022/08/12 01:31:12;;;;;;;;;;;;;;;;;;10457304;28;19925;-66
2022/08/12 01:36:17;;;;;;;;;;;;;;;;;;10456860;28;19929;-66
2022/08/12 01:41:19;;;;;;;;;;;;;;;;;;10457389;28;19925;-66
2022/08/12 01:46:21;;;;;;;;;;;;;;;;;;10459313;28;19925;-65
2022/08/12 01:51:25;;;;;;;;;;;;;;;;;;10457446;28;19932;-66
2022/08/12 01:56:48;;;;;;;;;;;;;;;;;;10457629;28;19925;-65
2022/08/12 02:01:50;;;;;;;;;;;;;;;;;;10456397;28;20299;-66
2022/08/12 02:12:14;;;;;;;;;;;;;;;;;;10456644;28;20287;-65
2022/08/12 02:17:16;;;;;;;;;;;;;;;;;;10456532;28;19925;-65
2022/08/12 02:22:18;;;;;;;;;;;;;;;;;;10456062;28;20398;-65
2022/08/12 02:27:20;;;;;;;;;;;;;;;;;;10457090;28;19929;-65
2022/08/12 02:32:22;;;;;;;;;;;;;;;;;;10456919;28;19936;-65
2022/08/12 02:37:25;;;;;;;;;;;;;;;;;;10452099;28;19925;-65
2022/08/12 02:42:27;;;;;;;;;;;;;;;;;;10456765;28;19925;-66
2022/08/12 02:47:30;;;;;;;;;;;;;;;;;;10456052;28;19932;-66
2022/08/12 02:52:52;;;;;;;;;;;;;;;;;;10462346;28;19928;-65
2022/08/12 02:57:54;;;;;;;;;;;;;;;;;;10462021;28;19932;-65
2022/08/12 03:02:56;;;;;;;;;;;;;;;;;;10463781;28;19932;-65
2022/08/12 03:07:58;;;;;;;;;;;;;;;;;;10463557;28;19939;-65
2022/08/12 03:13:02;;;;;;;;;;;;;;;;;;10462829;28;19929;-65
2022/08/12 03:18:04;;;;;;;;;;;;;;;;;;10482568;28;19948;-65
2022/08/12 03:23:26;;;;;;;;;;;;;;;;;;10463772;28;19932;-65
2022/08/12 03:28:49;;;;;;;;;;;;;;;;;;10462782;28;20415;-65
2022/08/12 03:33:52;;;;;;;;;;;;;;;;;;10461534;28;20291;-65
2022/08/12 04:00:23;;;;;;;;;;;;;;;;;;10460475;28;19931;-65
2022/08/12 04:05:25;;;;;;;;;;;;;;;;;;10461550;28;19972;-65
2022/08/12 04:16:08;;;;;;;;;;;;;;;;;;10460826;28;19924;-65
2022/08/12 04:21:11;;;;;;;;;;;;;;;;;;10460705;28;20233;-65
2022/08/12 04:26:13;;;;;;;;;;;;;;;;;;10461119;28;19931;-65
2022/08/12 04:31:15;;;;;;;;;;;;;;;;;;10459650;28;19925;-66
2022/08/12 04:36:17;;;;;;;;;;;;;;;;;;10459098;28;19931;-66
2022/08/12 04:41:19;;;;;;;;;;;;;;;;;;10460012;28;19958;-66
2022/08/12 04:46:22;;;;;;;;;;;;;;;;;;10460415;28;19937;-66
2022/08/12 04:51:28;;;;;;;;;;;;;;;;;;10460187;28;19925;-65
2022/08/12 04:56:30;;;;;;;;;;;;;;;;;;10458081;28;19924;-65
2022/08/12 05:01:36;;;;;;;;;;;;;;;;;;10459872;28;19932;-65
2022/08/12 05:06:38;;;;;;;;;;;;;;;;;;10458995;28;19925;-65
2022/08/12 05:11:40;;;;;;;;;;;;;;;;;;10457943;28;19932;-65
2022/08/12 05:16:55;;;;;;;;;;;;;;;;;;10455603;28;19925;-65
2022/08/12 05:21:57;;;;;;;;;;;;;;;;;;10458289;28;19931;-65
2022/08/12 05:26:59;;;;;;;;;;;;;;;;;;10458180;28;20276;-65
2022/08/12 05:32:01;;;;;;;;;;;;;;;;;;10456889;28;19925;-65
2022/08/12 05:37:03;;;;;;;;;;;;;;;;;;10458505;28;19925;-65
2022/08/12 05:42:07;;;;;;;;;;;;;;;;;;10456957;28;19950;-65
2022/08/12 05:47:13;;;;;;;;;;;;;;;;;;10457824;28;19925;-65
2022/08/12 05:52:15;;;;;;;;;;;;;;;;;;10457343;28;20287;-65
2022/08/12 05:57:17;;;;;;;;;;;;;;;;;;10455767;28;19924;-65
2022/08/12 06:02:19;;;;;;;;;;;;;;;;;;10456936;28;19931;-65
2022/08/12 06:07:22;;;;;;;;;;;;;;;;;;10456862;28;20287;-65
2022/08/12 06:12:48;;;;;;;;;;;;;;;;;;10456686;28;19929;-66
2022/08/12 06:17:50;;;;;;;;;;;;;;;;;;10457761;28;19931;-65
2022/08/12 06:22:52;;;;;;;;;;;;;;;;;;10456195;28;19935;-65
2022/08/12 06:27:55;;;;;;;;;;;;;;;;;;10466450;28;19925;-65
2022/08/12 06:33:08;;;;;;;;;;;;;;;;;;10464354;28;19971;-65
2022/08/12 06:38:31;;;;;;;;;;;;;;;;;;10442875;28;20326;-65
2022/08/12 06:43:33;;;;;;;;;;;;;;;;;;10464569;28;19928;-65
2022/08/12 06:48:57;;;;;;;;;;;;;;;;;;10464965;28;19925;-66
2022/08/12 06:53:59;;;;;;;;;;;;;;;;;;10462473;28;20293;-65
2022/08/12 06:59:02;;;;;;;;;;;;;;;;;;10464787;28;19925;-66
2022/08/12 07:04:04;;;;;;;;;;;;;;;;;;10463709;28;19925;-65
2022/08/12 07:09:26;;;;;;;;;;;;;;;;;;10422924;28;19925;-65
2022/08/12 07:14:50;;;;;;;;;;;;;;;;;;10436695;28;19929;-65
2022/08/12 07:19:53;;;;;;;;;;;;;;;;;;10462549;28;20299;-65
2022/08/12 07:30:17;;;;;;;;;;;;;;;;;;10470520;22;19932;-64
2022/08/12 07:35:19;;;;;;;;;;;;;;;;;;10460726;28;19947;-64
2022/08/12 07:40:21;;;;;;;;;;;;;;;;;;10463044;28;19924;-64
2022/08/12 07:45:24;;;;;;;;;;;;;;;;;;10460452;28;20288;-64
2022/08/12 07:50:26;;;;;;;;;;;;;;;;;;10461507;28;19925;-65
2022/08/12 07:55:28;;;;;;;;;;;;;;;;;;10460051;28;20288;-64
2022/08/12 08:00:30;;;;;;;;;;;;;;;;;;10462234;28;19925;-65
2022/08/12 08:05:54;;;;;;;;;;;;;;;;;;10459596;28;19928;-65
2022/08/12 08:12:52;;;;;;;;;;;;;;;;;;10461153;28;19925;-64
2022/08/12 08:16:17;;;;;;;;;;;;;;;;;;10459937;28;19925;-65
2022/08/12 08:21:20;;;;;;;;;;;;;;;;;;10460794;28;19924;-63
2022/08/12 08:26:23;;;;;;;;;;;;;;;;;;10460624;28;19925;-63
2022/08/12 08:31:25;;;;;;;;;;;;;;;;;;10458859;28;20298;-63
2022/08/12 08:36:27;;;;;;;;;;;;;;;;;;10459184;28;19940;-63
2022/08/12 08:47:10;;;;;;;;;;;;;;;;;;10418628;28;19925;-63
2022/08/12 08:52:12;;;;;;;;;;;;;;;;;;10418990;28;19925;-64
2022/08/12 08:57:14;;;;;;;;;;;;;;;;;;10450490;28;19933;-63
2022/08/12 09:02:16;;;;;;;;;;;;;;;;;;10459815;28;19931;-63
2022/08/12 09:07:19;;;;;;;;;;;;;;;;;;10458888;28;20387;-63
2022/08/12 09:18:04;;;;;;;;;;;;;;;;;;10456352;28;20421;-63
2022/08/12 09:23:10;;;;;;;;;;;;;;;;;;10457167;28;19924;-63
2022/08/12 09:28:32;;;;;;;;;;;;;;;;;;10456753;28;19924;-63
2022/08/12 09:33:34;;;;;;;;;;;;;;;;;;10457775;28;19935;-63
2022/08/12 09:38:57;;;;;;;;;;;;;;;;;;10457815;28;19925;-63
2022/08/12 09:49:40;;;;;;;;;;;;;;;;;;10458146;28;19928;-64
2022/08/12 09:54:43;;;;;;;;;;;;;;;;;;10455828;28;20286;-64
2022/08/12 09:59:46;;;;;;;;;;;;;;;;;;10456331;28;20286;-64
2022/08/12 10:05:08;;;;;;;;;;;;;;;;;;10456355;28;19978;-64
2022/08/12 10:10:14;;;;;;;;;;;;;;;;;;10457548;28;19931;-64
2022/08/12 10:15:27;;;;;;;;;;;;;;;;;;10456607;28;19925;-64
2022/08/12 10:20:49;;;;;;;;;;;;;;;;;;10456615;28;19951;-64
2022/08/12 10:31:32;;;;;;;;;;;;;;;;;;10456576;28;19928;-64
2022/08/12 10:36:57;;;;;;;;;;;;;;;;;;10453865;28;19954;-64
2022/08/12 10:47:31;;;;;;;;;;;;;;;;;;10456833;28;19925;-64
2022/08/12 10:52:53;;;;;;;;;;;;;;;;;;10454263;28;19925;-64
2022/08/12 10:57:55;;;;;;;;;;;;;;;;;;10453990;28;19928;-64
2022/08/12 11:03:17;;;;;;;;;;;;;;;;;;10455689;28;19925;-64
2022/08/12 11:08:39;;;;;;;;;;;;;;;;;;10456590;28;19929;-64
2022/08/12 11:13:45;;;;;;;;;;;;;;;;;;10459823;28;19935;-64
2022/08/12 11:18:49;;;;;;;;;;;;;;;;;;10463219;28;20401;-64
2022/08/12 11:23:55;;;;;;;;;;;;;;;;;;10463031;28;19924;-64
2022/08/12 11:28:57;;;;;;;;;;;;;;;;;;10463287;28;19929;-64
2022/08/12 11:34:06;;;;;;;;;;;;;;;;;;10461619;28;20004;-64
2022/08/12 11:39:28;;;;;;;;;;;;;;;;;;10461962;28;19924;-64
2022/08/12 11:44:50;;;;;;;;;;;;;;;;;;10499893;28;19950;-64
2022/08/12 11:49:52;;;;;;;;;;;;;;;;;;10503544;28;19938;-64
2022/08/12 11:54:55;;;;;;;;;;;;;;;;;;10487323;28;19928;-64
2022/08/12 11:59:57;;;;;;;;;;;;;;;;;;10462344;28;19924;-64
2022/08/12 12:05:19;;;;;;;;;;;;;;;;;;10461731;28;19925;-64
2022/08/12 12:10:21;;;;;;;;;;;;;;;;;;10460237;28;19925;-65
2022/08/12 12:15:23;;;;;;;;;;;;;;;;;;10459995;28;19932;-64
2022/08/12 12:20:38;;;;;;;;;;;;;;;;;;10461409;28;19964;-64
2022/08/12 12:25:40;;;;;;;;;;;;;;;;;;10460598;28;19926;-64
2022/08/12 12:31:02;;;;;;;;;;;;;;;;;;10458701;28;19974;-64
2022/08/12 12:36:05;;;;;;;;;;;;;;;;;;10459145;28;19929;-64
2022/08/12 12:41:21;;;;;;;;;;;;;;;;;;10460082;28;19932;-67
2022/08/12 12:46:25;;;;;;;;;;;;;;;;;;10459843;28;20471;-67
2022/08/12 12:51:27;;;;;;;;;;;;;;;;;;10458544;28;19925;-66
2022/08/12 12:56:53;;;;;;;;;;;;;;;;;;10444301;28;19928;-64
2022/08/12 13:02:06;;;;;;;;;;;;;;;;;;10458192;28;19929;-64
2022/08/12 13:07:09;;;;;;;;;;;;;;;;;;10458543;28;20379;-64
2022/08/12 13:12:13;;;;;;;;;;;;;;;;;;10459414;28;19932;-64
2022/08/12 13:17:16;;;;;;;;;;;;;;;;;;10456047;28;19929;-64
2022/08/12 13:22:18;;;;;;;;;;;;;;;;;;10458060;28;19925;-64
2022/08/12 13:27:21;;;;;;;;;;;;;;;;;;10457438;28;20012;-64
2022/08/12 13:32:28;;;;;;;;;;;;;;;;;;10454931;28;20387;-64
2022/08/12 13:37:32;;;;;;;;;;;;;;;;;;10456663;28;19935;-64
2022/08/12 13:42:47;;;;;;;;;;;;;;;;;;10456700;28;19933;-64
2022/08/12 13:47:54;;;;;;;;;;;;;;;;;;10456806;28;20345;-64
2022/08/12 13:52:56;;;;;;;;;;;;;;;;;;10456500;28;19925;-64
2022/08/12 13:58:00;;;;;;;;;;;;;;;;;;10455444;28;19924;-64
2022/08/12 14:03:02;;;;;;;;;;;;;;;;;;10455705;28;19956;-64
2022/08/12 14:08:07;;;;;;;;;;;;;;;;;;10437707;28;20024;-64
2022/08/12 14:13:09;;;;;;;;;;;;;;;;;;10455308;28;19924;-64
2022/08/12 14:18:18;;;;;;;;;;;;;;;;;;10457318;28;19931;-64
2022/08/12 14:23:20;;;;;;;;;;;;;;;;;;10457413;28;19932;-64
2022/08/12 14:28:42;;;;;;;;;;;;;;;;;;10457058;28;19932;-64
2022/08/12 14:33:51;;;;;;;;;;;;;;;;;;10456185;28;20364;-64
2022/08/12 14:38:53;;;;;;;;;;;;;;;;;;10456247;28;19925;-64
2022/08/12 14:43:55;;;;;;;;;;;;;;;;;;10456604;28;19928;-64
2022/08/12 14:49:08;;;;;;;;;;;;;;;;;;10464291;28;20383;-64
2022/08/12 14:54:31;;;;;;;;;;;;;;;;;;10464112;28;19925;-64
2022/08/12 15:05:13;;;;;;;;;;;;;;;;;;10464363;28;19925;-64
2022/08/12 15:10:36;;;;;;;;;;;;;;;;;;10464358;28;19960;-64
2022/08/12 15:15:38;;;;;;;;;;;;;;;;;;10464010;28;19932;-64
2022/08/12 15:20:46;;;;;;;;;;;;;;;;;;10464177;28;19940;-64
2022/08/12 15:25:48;;;;;;;;;;;;;;;;;;10463117;28;19929;-64
2022/08/12 15:30:53;;;;;;;;;;;;;;;;;;10462636;28;20380;-64
2022/08/12 15:35:55;;;;;;;;;;;;;;;;;;10463302;28;19928;-64
2022/08/12 15:40:58;;;;;;;;;;;;;;;;;;10452903;28;19925;-64
2022/08/12 15:46:01;;;;;;;;;;;;;;;;;;10454035;28;19925;-64
2022/08/12 15:51:03;;;;;;;;;;;;;;;;;;10457248;28;19943;-64
2022/08/12 15:56:07;;;;;;;;;;;;;;;;;;10460649;28;20287;-63
2022/08/12 16:01:13;;;;;;;;;;;;;;;;;;10460100;28;19935;-64
2022/08/12 16:06:16;;;;;;;;;;;;;;;;;;10460152;28;19929;-64
2022/08/12 16:11:38;;;;;;;;;;;;;;;;;;10461769;28;19929;-64
2022/08/12 16:16:42;;;;;;;;;;;;;;;;;;10459229;28;20279;-64
2022/08/12 16:21:46;;;;;;;;;;;;;;;;;;10461549;28;19925;-63
2022/08/12 16:26:53;;;;;;;;;;;;;;;;;;10457905;28;19925;-63
2022/08/12 16:31:57;;;;;;;;;;;;;;;;;;10460721;28;19935;-63
2022/08/12 16:37:00;;;;;;;;;;;;;;;;;;10440891;28;20327;-63
2022/08/12 16:42:02;;;;;;;;;;;;;;;;;;10459601;28;19925;-63
2022/08/12 16:47:04;;;;;;;;;;;;;;;;;;10458896;28;19925;-64
2022/08/12 16:52:07;;;;;;;;;;;;;;;;;;10458922;28;19931;-63
2022/08/12 16:57:10;;;;;;;;;;;;;;;;;;10459443;28;19925;-64
2022/08/12 17:02:12;;;;;;;;;;;;;;;;;;10458593;28;19929;-64
2022/08/12 17:07:36;;;;;;;;;;;;;;;;;;10429361;28;19925;-64
2022/08/12 17:12:39;;;;;;;;;;;;;;;;;;10455980;28;19925;-64
2022/08/12 17:17:41;;;;;;;;;;;;;;;;;;10457562;28;19924;-63
2022/08/12 17:22:43;;;;;;;;;;;;;;;;;;10456731;28;19925;-63
2022/08/12 17:27:46;;;;;;;;;;;;;;;;;;10455847;28;19929;-63
2022/08/12 17:32:48;;;;;;;;;;;;;;;;;;10457176;28;19924;-63
2022/08/12 17:37:54;;;;;;;;;;;;;;;;;;10458533;28;19997;-64
2022/08/12 17:42:57;;;;;;;;;;;;;;;;;;10456061;28;19928;-63
2022/08/12 17:48:00;;;;;;;;;;;;;;;;;;10457497;28;20386;-64
2022/08/12 17:53:06;;;;;;;;;;;;;;;;;;10457166;28;19928;-64
2022/08/12 17:58:10;;;;;;;;;;;;;;;;;;10456528;28;21346;-63
2022/08/12 18:03:15;;;;;;;;;;;;;;;;;;10456069;28;19995;-63
2022/08/12 18:08:37;;;;;;;;;;;;;;;;;;10456246;28;20342;-63
2022/08/12 18:13:39;;;;;;;;;;;;;;;;;;10455734;28;20296;-63
2022/08/12 18:18:43;;;;;;;;;;;;;;;;;;10454509;28;19924;-63
2022/08/12 18:23:50;;;;;;;;;;;;;;;;;;10455799;28;19932;-63
2022/08/12 18:28:55;;;;;;;;;;;;;;;;;;10455956;28;20392;-63
2022/08/12 18:33:57;;;;;;;;;;;;;;;;;;10455488;28;20280;-63
2022/08/12 18:39:03;;;;;;;;;;;;;;;;;;10456904;28;19924;-63
2022/08/12 18:44:05;;;;;;;;;;;;;;;;;;10455350;28;19924;-63
2022/08/12 18:49:12;;;;;;;;;;;;;;;;;;10454757;28;20433;-63
2022/08/12 18:54:20;;;;;;;;;;;;;;;;;;10456138;28;19932;-63
2022/08/12 18:59:22;;;;;;;;;;;;;;;;;;10454836;28;20028;-63
2022/08/12 19:04:44;;;;;;;;;;;;;;;;;;10452274;28;19939;-63
2022/08/12 19:09:48;;;;;;;;;;;;;;;;;;10454870;28;19925;-63
2022/08/12 19:15:01;;;;;;;;;;;;;;;;;;10455797;28;19924;-63
2022/08/12 19:20:05;;;;;;;;;;;;;;;;;;10454583;28;19925;-63
2022/08/12 19:25:23;;;;;;;;;;;;;;;;;;10452043;28;19929;-63
2022/08/12 19:36:06;;;;;;;;;;;;;;;;;;10504056;28;20560;-63
2022/08/12 19:41:26;;;;;;;;;;;;;;;;;;10472961;28;19925;-63
2022/08/12 19:46:43;;;;;;;;;;;;;;;;;;10503409;22;19951;-65
2022/08/12 19:51:54;;;;;;;;;;;;;;;;;;10502761;28;19971;-65
2022/08/12 19:56:57;;;;;;;;;;;;;;;;;;10503379;28;20015;-65
2022/08/12 20:01:59;;;;;;;;;;;;;;;;;;10537129;28;20039;-65
2022/08/12 20:07:04;;;;;;;;;;;;;;;;;;10486261;28;19982;-65
2022/08/12 20:12:06;;;;;;;;;;;;;;;;;;10536339;28;20375;-65
2022/08/12 20:17:16;;;;;;;;;;;;;;;;;;10545013;28;19924;-65
2022/08/12 20:22:18;;;;;;;;;;;;;;;;;;10503169;28;19924;-65
2022/08/12 20:27:27;;;;;;;;;;;;;;;;;;10482098;28;19924;-65
2022/08/12 20:32:30;;;;;;;;;;;;;;;;;;10523321;28;19970;-65
2022/08/12 20:37:38;;;;;;;;;;;;;;;;;;10501219;28;19932;-65
2022/08/12 20:43:00;;;;;;;;;;;;;;;;;;10514317;28;19959;-65
2022/08/12 20:48:07;;;;;;;;;;;;;;;;;;10501203;28;20394;-65
2022/08/12 20:53:09;;;;;;;;;;;;;;;;;;10499410;28;20374;-65
2022/08/12 20:58:15;;;;;;;;;;;;;;;;;;10499644;28;20008;-65
2022/08/12 21:08:57;;;;;;;;;;;;;;;;;;10501153;28;19977;-65
2022/08/12 21:14:00;;;;;;;;;;;;;;;;;;10500400;28;19925;-65
2022/08/12 21:19:02;;;;;;;;;;;;;;;;;;10498326;28;20374;-65
2022/08/12 21:24:09;;;;;;;;;;;;;;;;;;10513448;28;19924;-65
2022/08/12 21:29:11;;;;;;;;;;;;;;;;;;10541574;28;19938;-65
2022/08/12 21:34:16;;;;;;;;;;;;;;;;;;10542088;28;19928;-65
2022/08/12 21:39:18;;;;;;;;;;;;;;;;;;10540825;28;20076;-65
2022/08/12 21:44:22;;;;;;;;;;;;;;;;;;10535968;28;19967;-65
2022/08/12 21:49:44;;;;;;;;;;;;;;;;;;10541524;28;19931;-64
2022/08/12 21:54:58;;;;;;;;;;;;;;;;;;10540714;28;20340;-64
2022/08/12 22:00:00;;;;;;;;;;;;;;;;;;10539467;28;20291;-64
2022/08/12 22:10:23;;;;;;;;;;;;;;;;;;10525698;28;19934;-65
2022/08/12 22:15:29;;;;;;;;;;;;;;;;;;10540136;28;19924;-64
2022/08/12 22:20:31;;;;;;;;;;;;;;;;;;10537769;28;19932;-65
2022/08/12 22:25:33;;;;;;;;;;;;;;;;;;10524672;28;19928;-64
2022/08/12 22:35:57;;;;;;;;;;;;;;;;;;10534053;28;19931;-64
2022/08/12 22:41:00;;;;;;;;;;;;;;;;;;10539150;28;19932;-64
2022/08/12 22:47:35;;;;;;;;;;;;;;;;;;10506603;28;19935;-64
2022/08/12 22:51:31;;;;;;;;;;;;;;;;;;10517588;28;20382;-64
2022/08/12 22:56:54;;;;;;;;;;;;;;;;;;10539222;28;20302;-64
2022/08/12 23:01:56;;;;;;;;;;;;;;;;;;10513343;28;20371;-64
2022/08/12 23:07:03;;;;;;;;;;;;;;;;;;10499190;28;19960;-64
2022/08/12 23:12:06;;;;;;;;;;;;;;;;;;10528783;28;19925;-64
2022/08/12 23:17:10;;;;;;;;;;;;;;;;;;10547458;28;19924;-64
2022/08/12 23:22:22;;;;;;;;;;;;;;;;;;10540701;28;19924;-64
2022/08/12 23:32:58;;;;;;;;;;;;;;;;;;10545471;28;19924;-64
2022/08/12 23:38:01;;;;;;;;;;;;;;;;;;10546698;28;19924;-64
2022/08/12 23:43:04;;;;;;;;;;;;;;;;;;10511862;28;19929;-64
2022/08/12 23:48:06;;;;;;;;;;;;;;;;;;10503789;28;19924;-64
2022/08/12 23:53:08;;;;;;;;;;;;;;;;;;10538783;28;19924;-64
2022/08/12 23:58:27;;;;;;;;;;;;;;;;;;10546027;28;19943;-64
